Sagehen Creek Weather observations

Data are for observation ending at time listed.
 Day   Time    Ave.   Ave.  Ave.  Vector   Max.   Stn.    Total    Solar   Ave.  
  of    of     Air    Rel.  Wind   Wind    Wind   Baro.  Precip.   Rad.    Soil  
Year   Day     Temp.  Hum.  Speed  Dir.    Gust   Pres.                    Temp. 
2015   (PST)    F      %     mph   deg.    mph     mb.     in.     W/m2     F   
------------------------------------------------------------------------------
  89   10:20   64.0    26    2.2    98      4.4   838.4   11.09     719    999.0
  89   10:30   64.3    26    2.8    71      8.4   838.6   11.08     819    999.0
  89   10:40   66.0    24    1.7   124      4.0   838.1   11.08     847    999.0
  89   10:50   67.3    16    2.4   105      5.9   838.1   11.09     759    999.0
  89   11:00   66.2    15    2.4   182      5.5   838.2   11.09     352    999.0
  89   11:10   65.8    15    2.2   254      6.2   838.1   11.08     777    999.0
  89   11:20   67.0    14    2.7   275      8.6   838.1   11.08     899    999.0
  89   11:30   68.2    14    2.3   166      6.3   838.1   11.08     822    999.0
  89   11:40   68.2    15    2.9   151      7.4   837.9   11.08     811    999.0
  89   11:50   68.2    16    2.6   216      6.2   838.0   11.08     722    999.0
  89   12:00   68.6    16    3.3   258      6.8   838.1   11.08     844    999.0
  89   12:10   68.8    18    3.3   177      7.9   837.6   11.08     853    999.0
  89   12:20   68.2    18    3.9   266      9.4   837.8   11.08     875    999.0
  89   12:30   69.2    18    3.0   237      6.4   837.9   11.08     773    999.0
  89   12:40   66.3    20    3.6   186      9.5   837.8   11.08     603    999.0
  89   12:50   66.9    20    3.3   250      9.9   837.8   11.08     579    999.0
  89   13:00   68.0    19    2.8   258      7.6   837.8   11.08     805    999.0
  89   13:10   68.5    19    3.3   198      6.8   837.7   11.08     864    999.0
  89   13:20   68.1    19    3.5   202      8.2   837.6   11.08     849    999.0
  89   13:30   67.9    19    3.9   209     10.9   837.4   11.08     833    999.0
  89   13:40   67.9    19    3.9   249      9.4   837.2   11.08     814    999.0
  89   13:50   67.8    21    3.4   244      8.0   837.3   11.08     712    999.0
  89   14:00   67.8    24    3.5   249      7.7   837.3   11.08     589    999.0
  89   14:10   67.7    23    2.9   280      5.8   836.9   11.08     599    999.0
  89   14:20   66.5    24    2.8   254      7.0   837.1   11.09     342    999.0
  89   14:30   65.4    25    2.3   251      5.8   837.2   11.08     444    999.0
  89   14:40   65.8    24    2.9   261      7.1   836.8   11.08     401    999.0
  89   14:50   65.4    25    2.1   218      4.4   837.0   11.08     507    999.0
  89   15:00   65.9    24    3.0   260     10.7   837.1   11.08     449    999.0
  89   15:10   65.1    23    2.9   241      9.3   836.7   11.08     574    999.0
  89   15:20   65.2    23    3.1   254      8.0   836.7   11.08     487    999.0
  89   15:30   65.4    23    2.2   263      7.5   836.8   11.08     409    999.0
  89   15:40   64.5    23    2.7   211      7.4   836.8   11.08     386    999.0
  89   15:50   64.2    23    2.9   260      5.4   836.6   11.08     436    999.0
  89   16:00   64.1    22    3.3   254      7.8   836.4   11.09     411    999.0
  89   16:10  999.0   999  999.0   999    999.0   999.0   999.00     999    999.0
  89   16:20   61.2    22    2.8   246      8.3   432.4   11.09     239    999.0
  89   16:30   62.7    22    2.6   279      7.3   836.8   11.09     245    999.0
  89   16:40   62.6    23    1.6   214      3.4   836.2   11.09     260    999.0
  89   16:50   62.4    23    2.0   288      4.4   836.3   11.09     163    999.0
  89   17:00   61.0    24    3.1   264      8.8   836.4   11.09     186    999.0
  89   17:10   61.3    25    1.9   238      7.1   836.5   11.09     178    999.0
  89   17:20   60.7    26    1.6   270      5.6   836.5   11.09     120    999.0
  89   17:30   59.2    28    2.1   251      5.8   836.5   11.09      63    999.0
  89   17:40   58.1    30    2.0   267      5.6   836.5   11.09      46    999.0
  89   17:50   57.2    31    1.8   251      9.5   836.4   11.09      31    999.0
  89   18:00   56.6    31    2.1   272      5.8   836.4   11.09      22    999.0
  89   18:10   55.9    33    1.4   242      4.8   836.5   11.09      12    999.0
  89   18:20   55.3    34    1.1   225      3.9   836.5   11.09       4    999.0
  89   18:30   54.6    37    1.2   262      4.1   836.4   11.09       1    999.0
  89   18:40   54.0    39    1.4   214      4.4   836.6   11.09       1    999.0
  89   18:50   53.5    40    1.1   241      3.9   836.6   11.09       0    999.0
  89   19:00   53.0    41    1.7   250      5.8   836.6   11.09       0    999.0
  89   19:10   52.6    42    0.8   238      3.4   836.1   11.09       0    999.0
  89   19:20   52.1    42    1.2   256      4.1   836.1   11.09       0    999.0
  89   19:30   51.9    42    0.7   258      2.2   836.2   11.09       0    999.0
  89   19:40   51.5    41    0.7   241      2.2   836.8   11.09       0    999.0
  89   19:50   51.3    42    1.0   214      4.1   836.5   11.09       0    999.0
  89   20:00   51.0    44    1.2   241      4.0   836.3   11.09       0    999.0
  89   20:10   50.5    46    0.4   226      1.3   836.8   11.09       0    999.0
  89   20:20   49.5    49    0.2   220      1.1   836.9   11.09       0    999.0
  89   20:30   49.0    50    1.3   255      5.0   836.9   11.09       0    999.0
  89   20:40   48.6    52    0.9   252      2.8   836.6   11.09       0    999.0
  89   20:50   48.7    54    1.4   254      5.0   836.7   11.09       0    999.0
  89   21:00   49.3    54    1.1   247      1.8    55.8   11.09       0    999.0
  89   21:10   49.0    54    1.1   242      3.1   836.7   11.09       0    999.0
  89   21:20   48.8    55    1.2   241      4.3   836.6   11.09       0    999.0
  89   21:30   48.3    55    1.5   245      4.3   836.5   11.09       0    999.0
  89   21:40   48.0    56    1.6   235      3.3   836.7   11.09       0    999.0
  89   21:50   47.2    57    1.8   242      4.0   836.6   11.09       0    999.0
  89   22:00   48.1    53    2.2   252      6.0   836.4   11.09       0    999.0
  89   22:10   47.5    55    2.0   235      6.4   836.5   11.09       0    999.0
  89   22:20   47.1    56    2.2   240      6.5   836.2   11.09       0    999.0
  89   22:30   47.3    56    2.1   250      5.0   836.0   11.09       0    999.0
  89   22:40   47.7    56    2.4   261      5.6   836.4   11.09       0    999.0
  89   22:50   48.2    56    2.7   273      5.3   836.4   11.09       0    999.0
  89   23:00   48.1    55    2.5   263     10.1   836.4   11.09       0    999.0
  89   23:10   48.2    55    2.6   272      6.1   836.2   11.09       0    999.0
  89   23:20   47.8    56    2.6   272      6.6   836.1   11.09       0    999.0
  89   23:30   47.6    50    2.8   275      7.3   836.0   11.09       0    999.0
  89   23:40   47.2    47    2.1   248      5.8   836.5   11.09       0    999.0
  89   23:50   46.5    46    1.5   244      4.6   836.2   11.09       0    999.0
  90    0:00   45.7    46    1.4   269      2.6   836.0   11.09       0    999.0
  90    0:10   45.2    46    1.3   294      4.1   836.1   11.09       0    999.0
  90    0:20   45.1    48    1.6   283      3.4   836.2   11.09       0    999.0
  90    0:30   45.4    46    1.1   260      3.8   836.3   11.09       0    999.0
  90    0:40   45.6    44    1.3   279      3.9   835.9   11.09       0    999.0
  90    0:50   46.0    44    1.5    60      3.8   835.7   11.09       0    999.0
  90    1:00   46.2    43    2.3   121      7.6   835.5   11.09       0    999.0
  90    1:10   46.2    43    2.4   108      6.9   835.8   11.09       0    999.0
  90    1:20   45.7    43    2.2   117      6.1   835.7   11.09       0    999.0
  90    1:30   46.6    39    2.7   116      7.1   835.6   11.09       0    999.0
  90    1:40   46.6    38    2.2    95      4.5   835.6   11.09       0    999.0
  90    1:50   46.0    39    1.7    82      4.3   835.4   11.09       0    999.0
  90    2:00   45.2    41    2.0    83      5.0   835.3   11.09       0    999.0
  90    2:10   45.1    40    2.4   106      5.4   835.4   11.09       0    999.0
  90    2:20   42.8    49    2.3    88      6.3   835.2   11.09       0    999.0
  90    2:30   39.3    60    1.0   225      3.2   835.0   11.09       0    999.0
  90    2:40   37.7    62    1.3   253      3.3   835.3   11.09       0    999.0
  90    2:50   37.0    64    1.0   267      2.5   835.2   11.09       0    999.0
  90    3:00   36.4    64    1.0     9      2.6   835.0   11.09       0    999.0
  90    3:10   37.0    60    1.4   267      4.7   835.0   11.09       0    999.0
  90    3:20   35.3    65    1.5   201      6.0   834.9   11.09       0    999.0
  90    3:30   35.0    65    1.8   320      4.0   834.7   11.09       0    999.0
  90    3:40   34.1    65    1.6   264      3.8   834.5   11.09       0    999.0
  90    3:50   33.4    64    1.3   291      3.7   834.6   11.09       0    999.0
  90    4:00   33.1    64    1.6   298      4.2   834.7   11.09       0    999.0
  90    4:10   32.6    64    1.6   307      3.5   834.5   11.09       0    999.0
  90    4:20   32.4    66    1.2   255      3.0   834.6   11.10       0    999.0
  90    4:30   31.4    68    0.9   258      3.3   834.8   11.10       0    999.0
  90    4:40   30.7    70    1.1   209      2.8   834.8   11.10       0    999.0
  90    4:50   30.0    70    0.6   302      1.5   834.7   11.10       0    999.0
  90    5:00   29.7    70    0.8   289      2.0   834.5   11.09       0    999.0
  90    5:10   29.4    71    0.8   280      3.0   834.8   11.10       0    999.0
  90    5:20   29.0    71    1.0   253      2.6   834.8   11.10       0    999.0
  90    5:30   28.8    73    1.3   275      3.2   834.8   11.10       0    999.0
  90    5:40   28.8    74    1.4   280      3.0   834.4   11.09       0    999.0
  90    5:50   28.9    74    1.6   278      3.3   834.6   11.10       2    999.0
  90    6:00   29.2    73    1.9   282      4.0   834.7   11.10       4    999.0
  90    6:10   29.4    73    1.3   271      2.9   834.9   11.10       8    999.0
  90    6:20   29.5    74    1.2   286      3.1   834.6   11.10      13    999.0
  90    6:30   29.8    73    1.6   296      3.1   834.3   11.10      52    999.0
  90    6:40   32.7    68    1.4   294      3.9   834.7   11.10     128    999.0
  90    6:50   34.7    65    1.2   311      3.4   834.8   11.10     160    999.0
  90    7:00   37.1    59    2.2     1      4.3   834.9   11.10     193    999.0
  90    7:10   38.7    57    1.1   302      2.6   834.7   11.10     227    999.0
  90    7:20   41.2    51    1.8   152      5.9   834.7   11.10     262    999.0
  90    7:30   44.7    40    1.8    75      4.9   834.8   11.10     298    999.0
  90    7:40   46.1    36    2.5   127      7.3   834.9   11.09     334    999.0
  90    7:50   45.6    25    1.6   174      3.6     0.0   11.09     375    999.0
  90    8:00   48.3    29    2.9   232      8.0    13.9   11.09     398    999.0
  90    8:10   43.0    17    2.6   284      6.9     0.0   11.09     438    999.0
  90    8:20   49.5    27    2.7   182      5.7   431.4   11.09     458    999.0
  90    8:30   50.3    27    2.1   159      6.0   834.9   11.09     493    999.0
  90    8:40   50.8    26    2.6   232      6.3   834.5   11.09     526    999.0
  90    8:50   51.5    26    3.1   260      8.9   834.8   11.09     560    999.0
  90    9:00   51.5    27    3.3   256      7.7   835.1   11.09     589    999.0
  90    9:10   51.9    27    3.0   250      7.2   835.4   11.09     617    999.0
  90    9:20   52.3    27    3.3   230     10.2   835.2   11.09     641    999.0
  90    9:30   51.7    27    3.9   217      9.4   835.0   11.09     665    999.0
  90    9:40   52.1    28    3.5   270     10.1   835.4   11.09     689    999.0
  90    9:50   51.8    29    3.8   250      9.2   835.5   11.09     713    999.0
  90   10:00   51.9    28    3.7   266     10.4   835.5   11.09     732    999.0
  90   10:10   52.4    29    4.1   268      8.9   835.5   11.09     753    999.0

Return to Sagehen Creek graphs page.


Western Regional Climate Center,wrcc@dri.edu